sensor_id;sensor_type;location;lat;lon;timestamp;temperature;humidity
1415;DHT22;702;49.466;11.086;2023-07-31T00:00:34;16.90;70.10
1415;DHT22;702;49.466;11.086;2023-07-31T00:03:01;16.90;70.80
1415;DHT22;702;49.466;11.086;2023-07-31T00:05:28;16.90;71.60
1415;DHT22;702;49.466;11.086;2023-07-31T00:07:56;16.90;71.20
1415;DHT22;702;49.466;11.086;2023-07-31T00:10:23;16.90;71.30
1415;DHT22;702;49.466;11.086;2023-07-31T00:12:50;16.90;70.60
1415;DHT22;702;49.466;11.086;2023-07-31T00:15:18;16.90;72.90
1415;DHT22;702;49.466;11.086;2023-07-31T00:17:47;16.90;71.60
1415;DHT22;702;49.466;11.086;2023-07-31T00:20:14;16.80;72.10
1415;DHT22;702;49.466;11.086;2023-07-31T00:22:44;16.80;72.60
1415;DHT22;702;49.466;11.086;2023-07-31T00:25:11;16.70;71.80
1415;DHT22;702;49.466;11.086;2023-07-31T00:27:38;16.80;72.40
1415;DHT22;702;49.466;11.086;2023-07-31T00:30:10;16.80;71.20
1415;DHT22;702;49.466;11.086;2023-07-31T00:32:38;16.90;72.00
1415;DHT22;702;49.466;11.086;2023-07-31T00:35:07;16.90;71.90
1415;DHT22;702;49.466;11.086;2023-07-31T00:37:34;16.90;71.00
1415;DHT22;702;49.466;11.086;2023-07-31T00:40:01;16.80;71.70
1415;DHT22;702;49.466;11.086;2023-07-31T00:42:30;16.80;71.50
1415;DHT22;702;49.466;11.086;2023-07-31T00:44:57;16.80;71.20
1415;DHT22;702;49.466;11.086;2023-07-31T00:47:24;16.80;71.50
1415;DHT22;702;49.466;11.086;2023-07-31T00:49:52;16.80;72.00
1415;DHT22;702;49.466;11.086;2023-07-31T00:52:21;16.80;71.80
1415;DHT22;702;49.466;11.086;2023-07-31T00:54:49;16.90;73.20
1415;DHT22;702;49.466;11.086;2023-07-31T00:57:17;16.90;71.30
1415;DHT22;702;49.466;11.086;2023-07-31T00:59:44;17.00;70.90
1415;DHT22;702;49.466;11.086;2023-07-31T01:02:12;17.20;73.10
1415;DHT22;702;49.466;11.086;2023-07-31T01:04:43;17.30;71.60
1415;DHT22;702;49.466;11.086;2023-07-31T01:07:14;17.30;70.50
1415;DHT22;702;49.466;11.086;2023-07-31T01:09:52;17.30;72.10
1415;DHT22;702;49.466;11.086;2023-07-31T01:12:28;17.20;70.60
1415;DHT22;702;49.466;11.086;2023-07-31T01:15:04;17.30;71.70
1415;DHT22;702;49.466;11.086;2023-07-31T01:17:37;17.40;71.90
1415;DHT22;702;49.466;11.086;2023-07-31T01:20:08;17.40;71.60
1415;DHT22;702;49.466;11.086;2023-07-31T01:26:11;17.50;71.00
1415;DHT22;702;49.466;11.086;2023-07-31T01:28:46;17.50;72.20
1415;DHT22;702;49.466;11.086;2023-07-31T01:31:23;17.40;70.70
1415;DHT22;702;49.466;11.086;2023-07-31T01:33:53;17.50;70.70
1415;DHT22;702;49.466;11.086;2023-07-31T01:36:22;17.60;71.40
1415;DHT22;702;49.466;11.086;2023-07-31T01:38:49;17.50;70.40
1415;DHT22;702;49.466;11.086;2023-07-31T01:41:18;17.40;70.40
1415;DHT22;702;49.466;11.086;2023-07-31T01:43:47;17.40;70.50
1415;DHT22;702;49.466;11.086;2023-07-31T01:46:15;17.30;70.90
1415;DHT22;702;49.466;11.086;2023-07-31T01:48:42;17.40;71.10
1415;DHT22;702;49.466;11.086;2023-07-31T01:51:10;17.40;71.40
1415;DHT22;702;49.466;11.086;2023-07-31T01:53:37;17.40;71.00
1415;DHT22;702;49.466;11.086;2023-07-31T01:56:04;17.40;71.20
1415;DHT22;702;49.466;11.086;2023-07-31T01:58:33;17.40;71.00
1415;DHT22;702;49.466;11.086;2023-07-31T02:01:00;17.40;71.40
1415;DHT22;702;49.466;11.086;2023-07-31T02:03:28;17.40;71.00
1415;DHT22;702;49.466;11.086;2023-07-31T02:05:55;17.50;71.10
1415;DHT22;702;49.466;11.086;2023-07-31T02:08:22;17.40;71.20
1415;DHT22;702;49.466;11.086;2023-07-31T02:10:50;17.40;70.90
1415;DHT22;702;49.466;11.086;2023-07-31T02:13:18;17.50;71.00
1415;DHT22;702;49.466;11.086;2023-07-31T02:15:48;17.60;71.20
1415;DHT22;702;49.466;11.086;2023-07-31T02:18:18;17.50;70.80
1415;DHT22;702;49.466;11.086;2023-07-31T02:20:49;17.60;71.20
1415;DHT22;702;49.466;11.086;2023-07-31T02:23:17;17.70;74.50
1415;DHT22;702;49.466;11.086;2023-07-31T02:25:44;18.00;73.00
1415;DHT22;702;49.466;11.086;2023-07-31T02:28:12;18.40;72.50
1415;DHT22;702;49.466;11.086;2023-07-31T02:30:40;18.20;70.40
1415;DHT22;702;49.466;11.086;2023-07-31T02:33:11;18.30;73.20
1415;DHT22;702;49.466;11.086;2023-07-31T02:35:39;18.40;73.00
1415;DHT22;702;49.466;11.086;2023-07-31T02:38:06;18.50;70.90
1415;DHT22;702;49.466;11.086;2023-07-31T02:40:34;18.50;72.80
1415;DHT22;702;49.466;11.086;2023-07-31T02:43:02;18.60;72.00
1415;DHT22;702;49.466;11.086;2023-07-31T02:45:29;18.80;72.40
1415;DHT22;702;49.466;11.086;2023-07-31T02:47:57;18.60;70.80
1415;DHT22;702;49.466;11.086;2023-07-31T02:50:27;18.90;71.20
1415;DHT22;702;49.466;11.086;2023-07-31T02:52:54;18.90;70.80
1415;DHT22;702;49.466;11.086;2023-07-31T02:55:22;18.60;71.60
1415;DHT22;702;49.466;11.086;2023-07-31T02:57:49;19.00;72.30
1415;DHT22;702;49.466;11.086;2023-07-31T03:00:18;19.10;71.20
1415;DHT22;702;49.466;11.086;2023-07-31T03:02:45;19.10;71.70
1415;DHT22;702;49.466;11.086;2023-07-31T03:05:13;19.10;70.90
1415;DHT22;702;49.466;11.086;2023-07-31T03:07:43;19.00;71.70
1415;DHT22;702;49.466;11.086;2023-07-31T03:10:10;19.30;70.90
1415;DHT22;702;49.466;11.086;2023-07-31T03:12:39;18.90;69.90
1415;DHT22;702;49.466;11.086;2023-07-31T03:15:08;19.00;70.90
1415;DHT22;702;49.466;11.086;2023-07-31T03:17:35;19.00;71.20
1415;DHT22;702;49.466;11.086;2023-07-31T03:20:04;19.00;71.40
1415;DHT22;702;49.466;11.086;2023-07-31T03:22:31;18.90;70.80
1415;DHT22;702;49.466;11.086;2023-07-31T03:25:02;18.90;70.00
1415;DHT22;702;49.466;11.086;2023-07-31T03:27:29;19.10;71.40
1415;DHT22;702;49.466;11.086;2023-07-31T03:29:57;19.20;70.80
1415;DHT22;702;49.466;11.086;2023-07-31T03:32:25;19.30;70.00
1415;DHT22;702;49.466;11.086;2023-07-31T03:34:52;19.10;71.00
1415;DHT22;702;49.466;11.086;2023-07-31T03:37:19;19.20;70.80
1415;DHT22;702;49.466;11.086;2023-07-31T03:39:47;19.20;69.80
1415;DHT22;702;49.466;11.086;2023-07-31T03:42:15;18.90;69.70
1415;DHT22;702;49.466;11.086;2023-07-31T03:44:43;19.00;71.20
1415;DHT22;702;49.466;11.086;2023-07-31T03:47:14;19.10;70.20
1415;DHT22;702;49.466;11.086;2023-07-31T03:49:42;19.00;70.60
1415;DHT22;702;49.466;11.086;2023-07-31T03:52:09;18.70;70.00
1415;DHT22;702;49.466;11.086;2023-07-31T03:54:37;18.30;70.30
1415;DHT22;702;49.466;11.086;2023-07-31T03:57:06;18.00;71.80
1415;DHT22;702;49.466;11.086;2023-07-31T03:59:36;18.00;71.00
1415;DHT22;702;49.466;11.086;2023-07-31T04:02:09;17.70;71.40
1415;DHT22;702;49.466;11.086;2023-07-31T04:04:36;17.80;72.30
1415;DHT22;702;49.466;11.086;2023-07-31T04:07:05;17.70;71.70
1415;DHT22;702;49.466;11.086;2023-07-31T04:09:36;17.70;71.40
1415;DHT22;702;49.466;11.086;2023-07-31T04:12:06;17.70;71.70
1415;DHT22;702;49.466;11.086;2023-07-31T04:14:33;17.70;71.20
1415;DHT22;702;49.466;11.086;2023-07-31T04:17:02;17.80;71.20
1415;DHT22;702;49.466;11.086;2023-07-31T04:19:31;17.70;71.90
1415;DHT22;702;49.466;11.086;2023-07-31T04:21:59;17.80;72.00
1415;DHT22;702;49.466;11.086;2023-07-31T04:24:26;18.00;72.80
1415;DHT22;702;49.466;11.086;2023-07-31T04:26:53;18.00;72.20
1415;DHT22;702;49.466;11.086;2023-07-31T04:29:22;17.80;71.60
1415;DHT22;702;49.466;11.086;2023-07-31T04:31:49;17.90;73.60
1415;DHT22;702;49.466;11.086;2023-07-31T04:34:18;18.30;72.80
1415;DHT22;702;49.466;11.086;2023-07-31T04:36:46;18.10;72.60
1415;DHT22;702;49.466;11.086;2023-07-31T04:39:13;18.40;72.10
1415;DHT22;702;49.466;11.086;2023-07-31T04:41:42;18.40;72.60
1415;DHT22;702;49.466;11.086;2023-07-31T04:44:09;18.80;72.20
1415;DHT22;702;49.466;11.086;2023-07-31T04:46:38;18.50;72.10
1415;DHT22;702;49.466;11.086;2023-07-31T04:49:08;18.70;72.20
1415;DHT22;702;49.466;11.086;2023-07-31T04:51:39;19.10;71.90
1415;DHT22;702;49.466;11.086;2023-07-31T04:54:07;19.60;71.00
1415;DHT22;702;49.466;11.086;2023-07-31T04:56:34;19.60;70.60
1415;DHT22;702;49.466;11.086;2023-07-31T04:59:03;19.90;70.20
1415;DHT22;702;49.466;11.086;2023-07-31T05:01:30;20.10;70.40
1415;DHT22;702;49.466;11.086;2023-07-31T05:03:58;19.90;70.20
1415;DHT22;702;49.466;11.086;2023-07-31T05:06:25;19.90;70.20
1415;DHT22;702;49.466;11.086;2023-07-31T05:08:52;20.10;69.70
1415;DHT22;702;49.466;11.086;2023-07-31T05:11:23;20.00;69.80
1415;DHT22;702;49.466;11.086;2023-07-31T05:13:50;20.30;69.30
1415;DHT22;702;49.466;11.086;2023-07-31T05:16:19;20.10;69.00
1415;DHT22;702;49.466;11.086;2023-07-31T05:18:47;20.00;69.10
1415;DHT22;702;49.466;11.086;2023-07-31T05:21:15;20.20;68.80
1415;DHT22;702;49.466;11.086;2023-07-31T05:23:42;19.70;69.20
1415;DHT22;702;49.466;11.086;2023-07-31T05:26:13;19.50;68.70
1415;DHT22;702;49.466;11.086;2023-07-31T05:28:40;19.30;69.80
1415;DHT22;702;49.466;11.086;2023-07-31T05:31:08;19.50;69.90
1415;DHT22;702;49.466;11.086;2023-07-31T05:33:36;19.70;68.90
1415;DHT22;702;49.466;11.086;2023-07-31T05:36:05;19.90;69.30
1415;DHT22;702;49.466;11.086;2023-07-31T05:38:32;20.10;69.00
1415;DHT22;702;49.466;11.086;2023-07-31T05:41:00;20.00;68.30
1415;DHT22;702;49.466;11.086;2023-07-31T05:43:29;19.60;68.90
1415;DHT22;702;49.466;11.086;2023-07-31T05:45:56;19.30;68.20
1415;DHT22;702;49.466;11.086;2023-07-31T05:48:23;19.10;68.90
1415;DHT22;702;49.466;11.086;2023-07-31T05:50:51;18.70;70.70
1415;DHT22;702;49.466;11.086;2023-07-31T05:53:18;18.60;69.10
1415;DHT22;702;49.466;11.086;2023-07-31T05:55:46;18.40;69.80
1415;DHT22;702;49.466;11.086;2023-07-31T05:58:13;18.50;69.40
1415;DHT22;702;49.466;11.086;2023-07-31T06:00:41;18.60;69.20
1415;DHT22;702;49.466;11.086;2023-07-31T06:03:09;18.80;69.30
1415;DHT22;702;49.466;11.086;2023-07-31T06:05:36;18.80;69.10
1415;DHT22;702;49.466;11.086;2023-07-31T06:08:03;18.80;68.60
1415;DHT22;702;49.466;11.086;2023-07-31T06:10:31;18.80;69.00
1415;DHT22;702;49.466;11.086;2023-07-31T06:12:58;18.80;69.00
1415;DHT22;702;49.466;11.086;2023-07-31T06:15:25;18.70;69.00
1415;DHT22;702;49.466;11.086;2023-07-31T06:17:55;18.90;69.20
1415;DHT22;702;49.466;11.086;2023-07-31T06:20:23;19.00;68.70
1415;DHT22;702;49.466;11.086;2023-07-31T06:22:50;19.10;68.40
1415;DHT22;702;49.466;11.086;2023-07-31T06:25:18;19.10;68.10
1415;DHT22;702;49.466;11.086;2023-07-31T06:27:45;19.00;68.70
1415;DHT22;702;49.466;11.086;2023-07-31T06:30:13;19.10;68.40
1415;DHT22;702;49.466;11.086;2023-07-31T06:32:41;19.30;68.30
1415;DHT22;702;49.466;11.086;2023-07-31T06:35:10;19.80;68.30
1415;DHT22;702;49.466;11.086;2023-07-31T06:37:38;20.20;67.30
1415;DHT22;702;49.466;11.086;2023-07-31T06:40:10;20.30;67.50
1415;DHT22;702;49.466;11.086;2023-07-31T06:42:38;20.30;66.70
1415;DHT22;702;49.466;11.086;2023-07-31T06:45:06;20.10;67.10
1415;DHT22;702;49.466;11.086;2023-07-31T06:47:34;20.30;67.30
1415;DHT22;702;49.466;11.086;2023-07-31T06:50:01;20.30;67.10
1415;DHT22;702;49.466;11.086;2023-07-31T06:52:30;20.60;66.20
1415;DHT22;702;49.466;11.086;2023-07-31T06:55:02;20.50;66.30
1415;DHT22;702;49.466;11.086;2023-07-31T06:57:42;20.40;66.20
1415;DHT22;702;49.466;11.086;2023-07-31T07:00:10;20.10;66.00
1415;DHT22;702;49.466;11.086;2023-07-31T07:02:38;20.20;66.00
1415;DHT22;702;49.466;11.086;2023-07-31T07:05:06;20.20;66.00
1415;DHT22;702;49.466;11.086;2023-07-31T07:07:35;20.30;65.90
1415;DHT22;702;49.466;11.086;2023-07-31T07:10:03;20.50;65.80
1415;DHT22;702;49.466;11.086;2023-07-31T07:12:32;20.50;65.80
1415;DHT22;702;49.466;11.086;2023-07-31T07:15:00;20.30;65.90
1415;DHT22;702;49.466;11.086;2023-07-31T07:17:29;20.10;65.90
1415;DHT22;702;49.466;11.086;2023-07-31T07:19:57;20.10;66.20
1415;DHT22;702;49.466;11.086;2023-07-31T07:22:29;20.00;66.20
1415;DHT22;702;49.466;11.086;2023-07-31T07:24:58;20.10;66.60
1415;DHT22;702;49.466;11.086;2023-07-31T07:27:25;20.30;66.00
1415;DHT22;702;49.466;11.086;2023-07-31T07:29:52;20.60;65.80
1415;DHT22;702;49.466;11.086;2023-07-31T07:32:20;20.70;65.50
1415;DHT22;702;49.466;11.086;2023-07-31T07:34:48;20.70;65.20
1415;DHT22;702;49.466;11.086;2023-07-31T07:37:15;20.70;65.30
1415;DHT22;702;49.466;11.086;2023-07-31T07:39:43;20.80;65.80
1415;DHT22;702;49.466;11.086;2023-07-31T07:42:12;20.80;65.10
1415;DHT22;702;49.466;11.086;2023-07-31T07:44:39;20.80;65.30
1415;DHT22;702;49.466;11.086;2023-07-31T07:47:09;20.70;65.10
1415;DHT22;702;49.466;11.086;2023-07-31T07:49:36;20.70;65.20
1415;DHT22;702;49.466;11.086;2023-07-31T07:52:04;20.50;65.30
1415;DHT22;702;49.466;11.086;2023-07-31T07:54:32;20.60;65.40
1415;DHT22;702;49.466;11.086;2023-07-31T07:56:59;20.80;65.30
1415;DHT22;702;49.466;11.086;2023-07-31T07:59:28;20.90;64.80
1415;DHT22;702;49.466;11.086;2023-07-31T08:01:56;20.90;64.60
1415;DHT22;702;49.466;11.086;2023-07-31T08:04:24;21.10;64.60
1415;DHT22;702;49.466;11.086;2023-07-31T08:06:51;21.40;64.30
1415;DHT22;702;49.466;11.086;2023-07-31T08:09:18;21.40;63.70
1415;DHT22;702;49.466;11.086;2023-07-31T08:11:46;21.50;63.90
1415;DHT22;702;49.466;11.086;2023-07-31T08:14:13;22.00;63.70
1415;DHT22;702;49.466;11.086;2023-07-31T08:16:42;22.20;62.80
1415;DHT22;702;49.466;11.086;2023-07-31T08:19:09;22.10;63.00
1415;DHT22;702;49.466;11.086;2023-07-31T08:21:36;22.30;62.70
1415;DHT22;702;49.466;11.086;2023-07-31T08:24:04;22.20;62.60
1415;DHT22;702;49.466;11.086;2023-07-31T08:26:31;22.50;62.50
1415;DHT22;702;49.466;11.086;2023-07-31T08:28:59;22.70;62.10
1415;DHT22;702;49.466;11.086;2023-07-31T08:31:26;22.50;61.90
1415;DHT22;702;49.466;11.086;2023-07-31T08:33:56;22.70;62.00
1415;DHT22;702;49.466;11.086;2023-07-31T08:36:23;22.90;61.30
1415;DHT22;702;49.466;11.086;2023-07-31T08:38:51;23.30;61.80
1415;DHT22;702;49.466;11.086;2023-07-31T08:41:19;23.50;61.10
1415;DHT22;702;49.466;11.086;2023-07-31T08:43:49;23.60;60.40
1415;DHT22;702;49.466;11.086;2023-07-31T08:46:17;23.40;60.80
1415;DHT22;702;49.466;11.086;2023-07-31T08:48:47;23.30;60.80
1415;DHT22;702;49.466;11.086;2023-07-31T08:51:16;23.40;61.00
1415;DHT22;702;49.466;11.086;2023-07-31T08:53:43;23.50;60.40
1415;DHT22;702;49.466;11.086;2023-07-31T08:56:11;23.40;60.10
1415;DHT22;702;49.466;11.086;2023-07-31T08:58:41;23.40;60.60
1415;DHT22;702;49.466;11.086;2023-07-31T09:01:09;23.10;60.80
1415;DHT22;702;49.466;11.086;2023-07-31T09:03:37;22.90;60.30
1415;DHT22;702;49.466;11.086;2023-07-31T09:06:06;22.60;60.80
1415;DHT22;702;49.466;11.086;2023-07-31T09:08:37;22.60;61.10
1415;DHT22;702;49.466;11.086;2023-07-31T09:11:06;22.40;61.40
1415;DHT22;702;49.466;11.086;2023-07-31T09:13:33;22.50;61.80
1415;DHT22;702;49.466;11.086;2023-07-31T09:16:00;22.70;61.60
1415;DHT22;702;49.466;11.086;2023-07-31T09:18:30;22.60;61.80
1415;DHT22;702;49.466;11.086;2023-07-31T09:21:01;22.30;61.80
1415;DHT22;702;49.466;11.086;2023-07-31T09:23:42;22.40;61.90
1415;DHT22;702;49.466;11.086;2023-07-31T09:26:10;22.70;61.90
1415;DHT22;702;49.466;11.086;2023-07-31T09:28:37;22.50;60.90
1415;DHT22;702;49.466;11.086;2023-07-31T09:31:04;22.50;60.70
1415;DHT22;702;49.466;11.086;2023-07-31T09:33:32;23.00;60.70
1415;DHT22;702;49.466;11.086;2023-07-31T09:36:00;23.20;60.40
1415;DHT22;702;49.466;11.086;2023-07-31T09:38:28;23.30;60.50
1415;DHT22;702;49.466;11.086;2023-07-31T09:40:58;23.50;60.30
1415;DHT22;702;49.466;11.086;2023-07-31T09:43:27;24.00;59.80
1415;DHT22;702;49.466;11.086;2023-07-31T09:45:55;24.10;59.70
1415;DHT22;702;49.466;11.086;2023-07-31T09:48:24;23.90;59.50
1415;DHT22;702;49.466;11.086;2023-07-31T09:50:54;23.90;59.90
1415;DHT22;702;49.466;11.086;2023-07-31T09:53:28;24.00;59.30
1415;DHT22;702;49.466;11.086;2023-07-31T09:55:58;23.50;59.40
1415;DHT22;702;49.466;11.086;2023-07-31T09:58:28;23.30;59.90
1415;DHT22;702;49.466;11.086;2023-07-31T10:00:57;23.40;60.10
1415;DHT22;702;49.466;11.086;2023-07-31T10:03:26;23.60;59.90
1415;DHT22;702;49.466;11.086;2023-07-31T10:05:55;23.90;60.00
1415;DHT22;702;49.466;11.086;2023-07-31T10:08:28;24.40;59.80
1415;DHT22;702;49.466;11.086;2023-07-31T10:10:59;24.80;59.40
1415;DHT22;702;49.466;11.086;2023-07-31T10:13:29;24.70;59.10
1415;DHT22;702;49.466;11.086;2023-07-31T10:15:59;24.50;59.30
1415;DHT22;702;49.466;11.086;2023-07-31T10:18:27;24.40;59.20
1415;DHT22;702;49.466;11.086;2023-07-31T10:20:55;24.40;59.00
1415;DHT22;702;49.466;11.086;2023-07-31T10:23:23;24.30;59.00
1415;DHT22;702;49.466;11.086;2023-07-31T10:25:53;24.30;58.90
1415;DHT22;702;49.466;11.086;2023-07-31T10:28:22;24.30;58.80
1415;DHT22;702;49.466;11.086;2023-07-31T10:30:52;24.00;59.00
1415;DHT22;702;49.466;11.086;2023-07-31T10:33:20;23.80;59.30
1415;DHT22;702;49.466;11.086;2023-07-31T10:35:47;23.80;59.40
1415;DHT22;702;49.466;11.086;2023-07-31T10:38:15;23.80;58.90
1415;DHT22;702;49.466;11.086;2023-07-31T10:40:42;24.00;58.80
1415;DHT22;702;49.466;11.086;2023-07-31T10:43:25;24.10;58.60
1415;DHT22;702;49.466;11.086;2023-07-31T10:45:53;24.30;58.50
1415;DHT22;702;49.466;11.086;2023-07-31T10:48:21;24.30;58.70
1415;DHT22;702;49.466;11.086;2023-07-31T10:50:50;24.30;58.30
1415;DHT22;702;49.466;11.086;2023-07-31T10:53:31;24.60;57.90
1415;DHT22;702;49.466;11.086;2023-07-31T10:55:59;25.00;57.40
1415;DHT22;702;49.466;11.086;2023-07-31T10:58:28;24.90;57.30
1415;DHT22;702;49.466;11.086;2023-07-31T11:00:58;24.40;57.20
1415;DHT22;702;49.466;11.086;2023-07-31T11:03:40;24.40;57.90
1415;DHT22;702;49.466;11.086;2023-07-31T11:06:08;24.50;57.30
1415;DHT22;702;49.466;11.086;2023-07-31T11:08:40;24.40;57.30
1415;DHT22;702;49.466;11.086;2023-07-31T11:11:10;24.70;57.40
1415;DHT22;702;49.466;11.086;2023-07-31T11:13:44;24.80;56.80
1415;DHT22;702;49.466;11.086;2023-07-31T11:16:15;24.70;57.40
1415;DHT22;702;49.466;11.086;2023-07-31T11:18:45;24.30;57.70
1415;DHT22;702;49.466;11.086;2023-07-31T11:21:14;24.00;57.90
1415;DHT22;702;49.466;11.086;2023-07-31T11:23:45;24.00;58.00
1415;DHT22;702;49.466;11.086;2023-07-31T11:26:13;24.00;57.80
1415;DHT22;702;49.466;11.086;2023-07-31T11:28:42;24.10;57.90
1415;DHT22;702;49.466;11.086;2023-07-31T11:31:10;23.70;57.70
1415;DHT22;702;49.466;11.086;2023-07-31T11:33:38;23.80;58.00
1415;DHT22;702;49.466;11.086;2023-07-31T11:36:05;23.80;57.90
1415;DHT22;702;49.466;11.086;2023-07-31T11:38:33;23.60;57.00
1415;DHT22;702;49.466;11.086;2023-07-31T11:41:02;23.50;57.40
1415;DHT22;702;49.466;11.086;2023-07-31T11:43:31;23.50;57.60
1415;DHT22;702;49.466;11.086;2023-07-31T11:46:01;23.50;57.70
1415;DHT22;702;49.466;11.086;2023-07-31T11:48:31;23.50;57.60
1415;DHT22;702;49.466;11.086;2023-07-31T11:51:03;23.50;57.60
1415;DHT22;702;49.466;11.086;2023-07-31T11:53:33;23.60;58.40
1415;DHT22;702;49.466;11.086;2023-07-31T11:56:04;23.90;57.60
1415;DHT22;702;49.466;11.086;2023-07-31T11:58:34;24.20;57.10
1415;DHT22;702;49.466;11.086;2023-07-31T12:01:05;24.00;57.00
1415;DHT22;702;49.466;11.086;2023-07-31T12:03:34;24.10;57.10
1415;DHT22;702;49.466;11.086;2023-07-31T12:06:02;24.30;57.30
1415;DHT22;702;49.466;11.086;2023-07-31T12:08:29;24.40;57.60
1415;DHT22;702;49.466;11.086;2023-07-31T12:11:03;24.80;57.10
1415;DHT22;702;49.466;11.086;2023-07-31T12:13:32;25.00;57.10
1415;DHT22;702;49.466;11.086;2023-07-31T12:16:00;24.80;56.40
1415;DHT22;702;49.466;11.086;2023-07-31T12:18:33;24.70;57.00
1415;DHT22;702;49.466;11.086;2023-07-31T12:21:04;24.50;56.70
1415;DHT22;702;49.466;11.086;2023-07-31T12:23:32;24.30;57.10
1415;DHT22;702;49.466;11.086;2023-07-31T12:26:02;24.00;56.60
1415;DHT22;702;49.466;11.086;2023-07-31T12:28:30;23.90;57.30
1415;DHT22;702;49.466;11.086;2023-07-31T12:30:58;24.20;57.30
1415;DHT22;702;49.466;11.086;2023-07-31T12:33:33;24.20;57.20
1415;DHT22;702;49.466;11.086;2023-07-31T12:36:03;24.40;57.30
1415;DHT22;702;49.466;11.086;2023-07-31T12:38:31;24.80;56.70
1415;DHT22;702;49.466;11.086;2023-07-31T12:40:58;24.80;56.80
1415;DHT22;702;49.466;11.086;2023-07-31T12:43:26;24.70;55.90
1415;DHT22;702;49.466;11.086;2023-07-31T12:45:54;24.80;56.70
1415;DHT22;702;49.466;11.086;2023-07-31T12:48:22;24.80;55.90
1415;DHT22;702;49.466;11.086;2023-07-31T12:50:51;24.80;55.80
1415;DHT22;702;49.466;11.086;2023-07-31T12:53:18;24.50;56.50
1415;DHT22;702;49.466;11.086;2023-07-31T12:55:45;24.30;56.10
1415;DHT22;702;49.466;11.086;2023-07-31T12:58:12;24.40;56.50
1415;DHT22;702;49.466;11.086;2023-07-31T13:00:39;24.70;55.90
1415;DHT22;702;49.466;11.086;2023-07-31T13:03:07;25.00;55.80
1415;DHT22;702;49.466;11.086;2023-07-31T13:05:34;25.00;55.50
1415;DHT22;702;49.466;11.086;2023-07-31T13:08:03;25.00;55.90
1415;DHT22;702;49.466;11.086;2023-07-31T13:10:30;24.90;56.10
1415;DHT22;702;49.466;11.086;2023-07-31T13:12:57;25.20;56.00
1415;DHT22;702;49.466;11.086;2023-07-31T13:15:25;25.30;56.00
1415;DHT22;702;49.466;11.086;2023-07-31T13:17:52;25.40;55.50
1415;DHT22;702;49.466;11.086;2023-07-31T13:20:20;25.40;55.50
1415;DHT22;702;49.466;11.086;2023-07-31T13:22:47;25.50;55.50
1415;DHT22;702;49.466;11.086;2023-07-31T13:25:15;25.80;54.70
1415;DHT22;702;49.466;11.086;2023-07-31T13:27:42;25.80;55.00
1415;DHT22;702;49.466;11.086;2023-07-31T13:30:09;25.70;54.80
1415;DHT22;702;49.466;11.086;2023-07-31T13:32:37;25.70;55.00
1415;DHT22;702;49.466;11.086;2023-07-31T13:35:05;25.80;54.70
1415;DHT22;702;49.466;11.086;2023-07-31T13:37:33;25.50;54.50
1415;DHT22;702;49.466;11.086;2023-07-31T13:40:00;25.70;55.10
1415;DHT22;702;49.466;11.086;2023-07-31T13:42:31;26.10;55.10
1415;DHT22;702;49.466;11.086;2023-07-31T13:44:59;26.20;54.60
1415;DHT22;702;49.466;11.086;2023-07-31T13:47:27;26.20;54.60
1415;DHT22;702;49.466;11.086;2023-07-31T13:49:54;26.30;54.70
1415;DHT22;702;49.466;11.086;2023-07-31T13:52:23;26.40;53.80
1415;DHT22;702;49.466;11.086;2023-07-31T13:54:50;26.30;54.40
1415;DHT22;702;49.466;11.086;2023-07-31T13:57:17;26.50;53.90
1415;DHT22;702;49.466;11.086;2023-07-31T13:59:46;26.50;54.20
1415;DHT22;702;49.466;11.086;2023-07-31T14:02:13;26.30;53.80
1415;DHT22;702;49.466;11.086;2023-07-31T14:04:40;25.90;54.10
1415;DHT22;702;49.466;11.086;2023-07-31T14:07:08;25.80;54.30
1415;DHT22;702;49.466;11.086;2023-07-31T14:09:35;26.20;54.10
1415;DHT22;702;49.466;11.086;2023-07-31T14:12:03;25.90;54.40
1415;DHT22;702;49.466;11.086;2023-07-31T14:14:31;26.20;54.50
1415;DHT22;702;49.466;11.086;2023-07-31T14:17:02;26.10;54.10
1415;DHT22;702;49.466;11.086;2023-07-31T14:19:30;25.80;54.10
1415;DHT22;702;49.466;11.086;2023-07-31T14:21:58;25.70;54.10
1415;DHT22;702;49.466;11.086;2023-07-31T14:24:26;25.60;54.20
1415;DHT22;702;49.466;11.086;2023-07-31T14:26:53;25.50;53.90
1415;DHT22;702;49.466;11.086;2023-07-31T14:29:20;25.70;54.20
1415;DHT22;702;49.466;11.086;2023-07-31T14:31:48;25.90;53.70
1415;DHT22;702;49.466;11.086;2023-07-31T14:34:16;25.80;53.30
1415;DHT22;702;49.466;11.086;2023-07-31T14:36:44;25.60;53.70
1415;DHT22;702;49.466;11.086;2023-07-31T14:39:12;25.60;53.60
1415;DHT22;702;49.466;11.086;2023-07-31T14:41:39;25.40;53.80
1415;DHT22;702;49.466;11.086;2023-07-31T14:44:06;25.40;53.80
1415;DHT22;702;49.466;11.086;2023-07-31T14:46:33;25.10;54.40
1415;DHT22;702;49.466;11.086;2023-07-31T14:49:01;24.70;54.60
1415;DHT22;702;49.466;11.086;2023-07-31T14:51:30;24.50;54.90
1415;DHT22;702;49.466;11.086;2023-07-31T14:53:57;24.30;54.80
1415;DHT22;702;49.466;11.086;2023-07-31T14:56:27;24.40;54.50
1415;DHT22;702;49.466;11.086;2023-07-31T14:58:55;24.30;54.40
1415;DHT22;702;49.466;11.086;2023-07-31T15:01:22;24.10;54.50
1415;DHT22;702;49.466;11.086;2023-07-31T15:03:50;23.90;55.00
1415;DHT22;702;49.466;11.086;2023-07-31T15:06:17;23.90;54.90
1415;DHT22;702;49.466;11.086;2023-07-31T15:08:46;23.80;54.80
1415;DHT22;702;49.466;11.086;2023-07-31T15:11:13;23.70;55.10
1415;DHT22;702;49.466;11.086;2023-07-31T15:13:41;23.60;55.30
1415;DHT22;702;49.466;11.086;2023-07-31T15:16:08;23.40;55.40
1415;DHT22;702;49.466;11.086;2023-07-31T15:18:36;23.40;55.70
1415;DHT22;702;49.466;11.086;2023-07-31T15:21:03;23.40;55.80
1415;DHT22;702;49.466;11.086;2023-07-31T15:23:32;23.30;55.60
1415;DHT22;702;49.466;11.086;2023-07-31T15:26:00;23.20;55.60
1415;DHT22;702;49.466;11.086;2023-07-31T15:28:30;23.20;56.20
1415;DHT22;702;49.466;11.086;2023-07-31T15:30:58;23.20;55.80
1415;DHT22;702;49.466;11.086;2023-07-31T15:33:27;23.20;56.10
1415;DHT22;702;49.466;11.086;2023-07-31T15:35:54;23.20;56.10
1415;DHT22;702;49.466;11.086;2023-07-31T15:38:22;23.20;56.10
1415;DHT22;702;49.466;11.086;2023-07-31T15:40:49;23.20;56.50
1415;DHT22;702;49.466;11.086;2023-07-31T15:43:19;23.10;56.30
1415;DHT22;702;49.466;11.086;2023-07-31T15:45:48;23.10;56.40
1415;DHT22;702;49.466;11.086;2023-07-31T15:48:15;23.20;56.60
1415;DHT22;702;49.466;11.086;2023-07-31T15:50:43;23.20;56.80
1415;DHT22;702;49.466;11.086;2023-07-31T15:53:11;23.30;56.80
1415;DHT22;702;49.466;11.086;2023-07-31T15:55:40;23.40;56.80
1415;DHT22;702;49.466;11.086;2023-07-31T15:58:07;23.60;56.80
1415;DHT22;702;49.466;11.086;2023-07-31T16:00:36;23.70;56.90
1415;DHT22;702;49.466;11.086;2023-07-31T16:03:03;23.60;56.50
1415;DHT22;702;49.466;11.086;2023-07-31T16:05:31;23.70;56.50
1415;DHT22;702;49.466;11.086;2023-07-31T16:07:58;23.70;56.60
1415;DHT22;702;49.466;11.086;2023-07-31T16:10:26;23.90;56.50
1415;DHT22;702;49.466;11.086;2023-07-31T16:12:54;24.00;56.50